createdAt,value
2023-03-31T00:00:00.636Z,93.60
2023-03-31T00:00:32.683Z,93.90
2023-03-31T00:01:04.620Z,93.90
2023-03-31T00:01:41.858Z,93.70
2023-03-31T00:02:13.880Z,93.70
2023-03-31T00:02:46.216Z,93.70
2023-03-31T00:03:21.950Z,93.70
2023-03-31T00:04:02.087Z,93.70
2023-03-31T00:04:34.285Z,93.70
2023-03-31T00:05:07.972Z,93.70
2023-03-31T00:05:40.177Z,93.90
2023-03-31T00:06:17.932Z,93.70
2023-03-31T00:06:53.907Z,93.80
2023-03-31T00:07:25.983Z,93.70
2023-03-31T00:08:01.065Z,93.70
2023-03-31T00:08:35.728Z,93.70
2023-03-31T00:09:18.917Z,93.70
2023-03-31T00:10:00.884Z,93.70
2023-03-31T00:10:46.650Z,93.70
2023-03-31T00:11:18.402Z,93.60
2023-03-31T00:11:51.898Z,93.80
2023-03-31T00:12:23.661Z,93.60
2023-03-31T00:12:55.619Z,93.70
2023-03-31T00:13:27.777Z,93.90
2023-03-31T00:13:59.573Z,93.70
2023-03-31T00:14:31.322Z,93.70
2023-03-31T00:15:03.624Z,93.70
2023-03-31T00:15:35.377Z,93.70
2023-03-31T00:16:09.979Z,93.70
2023-03-31T00:16:41.999Z,93.60
2023-03-31T00:17:14.160Z,93.70
2023-03-31T00:17:47.224Z,93.70
2023-03-31T00:18:19.070Z,93.60
2023-03-31T00:18:51.371Z,93.80
2023-03-31T00:19:23.222Z,93.90
2023-03-31T00:20:00.293Z,93.70
2023-03-31T00:20:33.509Z,93.70
2023-03-31T00:21:14.431Z,93.90
2023-03-31T00:21:47.645Z,93.80
2023-03-31T00:22:22.103Z,93.70
2023-03-31T00:22:54.653Z,93.70
2023-03-31T00:23:27.910Z,93.70
2023-03-31T00:24:05.353Z,93.70
2023-03-31T00:24:37.326Z,93.70
2023-03-31T00:25:13.059Z,93.70
2023-03-31T00:25:44.982Z,93.70
2023-03-31T00:26:16.741Z,93.90
2023-03-31T00:26:48.584Z,93.70
2023-03-31T00:27:20.546Z,93.80
2023-03-31T00:27:52.720Z,93.70
2023-03-31T00:28:24.458Z,93.80
2023-03-31T00:28:56.874Z,93.70
2023-03-31T00:29:29.540Z,93.70
2023-03-31T00:30:01.441Z,93.70
2023-03-31T00:30:33.190Z,93.70
2023-03-31T00:31:05.499Z,93.70
2023-03-31T00:31:38.837Z,93.70
2023-03-31T00:32:11.800Z,93.70
2023-03-31T00:32:43.755Z,93.70
2023-03-31T00:33:15.574Z,93.90
2023-03-31T00:33:48.234Z,93.80
2023-03-31T00:34:20.177Z,93.70
2023-03-31T00:34:52.425Z,93.70
2023-03-31T00:35:24.219Z,94.00
2023-03-31T00:35:56.382Z,93.70
2023-03-31T00:36:28.477Z,93.70
2023-03-31T00:37:02.628Z,93.70
2023-03-31T00:37:34.809Z,93.90
2023-03-31T00:38:09.531Z,93.70
2023-03-31T00:38:45.820Z,93.70
2023-03-31T00:39:19.269Z,93.70
2023-03-31T00:39:51.029Z,93.70
2023-03-31T00:40:22.863Z,93.70
2023-03-31T00:40:56.743Z,93.70
2023-03-31T00:41:29.784Z,93.90
2023-03-31T00:42:05.912Z,93.70
2023-03-31T00:42:44.238Z,93.70
2023-03-31T00:43:26.748Z,93.70
2023-03-31T00:44:19.058Z,93.70
2023-03-31T00:45:16.218Z,93.70
2023-03-31T00:45:48.412Z,93.70
2023-03-31T00:46:28.859Z,93.10
2023-03-31T00:47:07.879Z,93.70
2023-03-31T00:47:42.988Z,93.70
2023-03-31T00:48:19.406Z,93.80
2023-03-31T00:48:57.642Z,93.70
2023-03-31T00:49:34.141Z,93.70
2023-03-31T00:50:20.469Z,94.00
2023-03-31T00:50:57.737Z,93.70
2023-03-31T00:51:33.997Z,93.80
2023-03-31T00:52:22.735Z,93.80
2023-03-31T00:53:06.603Z,93.70
2023-03-31T00:53:38.561Z,93.80
2023-03-31T00:54:11.651Z,93.80
2023-03-31T00:54:47.157Z,93.80
2023-03-31T00:55:25.609Z,93.80
2023-03-31T00:56:07.157Z,94.00
2023-03-31T00:56:44.663Z,93.80
2023-03-31T00:57:17.143Z,93.80
2023-03-31T00:57:49.399Z,93.80
2023-03-31T00:58:28.172Z,93.80
2023-03-31T00:59:03.805Z,93.80
2023-03-31T00:59:49.719Z,93.80
2023-03-31T01:00:24.021Z,93.80
2023-03-31T01:00:58.597Z,93.80
2023-03-31T01:01:31.592Z,93.80
2023-03-31T01:02:05.119Z,93.80
2023-03-31T01:02:41.468Z,93.80
2023-03-31T01:03:14.044Z,93.80
2023-03-31T01:03:47.294Z,93.80
2023-03-31T01:04:22.537Z,93.80
2023-03-31T01:05:02.042Z,93.80
2023-03-31T01:05:44.400Z,93.80
2023-03-31T01:06:19.799Z,93.80
2023-03-31T01:07:03.487Z,93.80
2023-03-31T01:07:48.086Z,93.80
2023-03-31T01:08:24.381Z,93.90
2023-03-31T01:08:56.684Z,93.90
2023-03-31T01:09:34.837Z,93.90
2023-03-31T01:10:07.217Z,94.00
2023-03-31T01:10:46.513Z,94.40
2023-03-31T01:11:26.219Z,93.80
2023-03-31T01:11:59.062Z,94.20
2023-03-31T01:12:34.082Z,93.90
2023-03-31T01:13:06.171Z,93.90
2023-03-31T01:13:41.583Z,93.20
2023-03-31T01:14:14.734Z,93.90
2023-03-31T01:14:51.275Z,93.90
2023-03-31T01:15:23.314Z,93.80
2023-03-31T01:15:55.105Z,93.90
2023-03-31T01:16:26.897Z,93.90
2023-03-31T01:16:59.191Z,93.90
2023-03-31T01:17:31.480Z,93.90
2023-03-31T01:18:10.757Z,93.90
2023-03-31T01:18:49.438Z,93.90
2023-03-31T01:19:57.270Z,94.00
2023-03-31T01:20:29.056Z,93.90
2023-03-31T01:21:19.023Z,93.90
2023-03-31T01:22:12.108Z,93.90
2023-03-31T01:23:14.670Z,93.90
2023-03-31T01:24:19.437Z,94.10
2023-03-31T01:25:01.518Z,93.90
2023-03-31T01:26:21.184Z,93.90
2023-03-31T01:27:29.567Z,93.90
2023-03-31T01:28:23.500Z,93.90
2023-03-31T01:29:08.618Z,93.90
2023-03-31T01:29:55.242Z,93.90
2023-03-31T01:30:59.318Z,93.90
2023-03-31T01:32:04.063Z,93.90
2023-03-31T01:32:47.944Z,93.90
2023-03-31T01:33:44.860Z,94.20
2023-03-31T01:34:34.656Z,94.00
2023-03-31T01:35:24.984Z,94.00
2023-03-31T01:36:30.310Z,94.00
2023-03-31T01:37:39.457Z,94.00
2023-03-31T01:38:32.542Z,94.00
2023-03-31T01:39:26.862Z,93.90
2023-03-31T01:40:09.872Z,94.00
2023-03-31T01:41:02.966Z,94.00
2023-03-31T01:42:01.556Z,94.00
2023-03-31T01:42:56.342Z,94.00
2023-03-31T01:43:45.952Z,94.00
2023-03-31T01:44:33.531Z,94.00
2023-03-31T01:45:22.902Z,94.00
2023-03-31T01:46:18.659Z,94.00
2023-03-31T01:47:11.096Z,94.00
2023-03-31T01:48:09.686Z,94.00
2023-03-31T01:48:50.139Z,94.00
2023-03-31T01:49:49.300Z,94.00
2023-03-31T01:51:03.026Z,94.00
2023-03-31T01:51:47.365Z,94.00
2023-03-31T01:52:42.161Z,94.00
2023-03-31T01:53:21.823Z,94.00
2023-03-31T01:54:05.893Z,94.10
2023-03-31T01:55:09.133Z,94.20
2023-03-31T01:56:07.119Z,94.00
2023-03-31T01:56:46.379Z,94.10
2023-03-31T01:57:34.624Z,94.00
2023-03-31T01:58:14.412Z,94.00
2023-03-31T01:59:12.796Z,94.00
2023-03-31T01:59:56.361Z,94.00
2023-03-31T02:00:33.802Z,94.00
2023-03-31T02:01:15.926Z,94.10
2023-03-31T02:02:16.527Z,94.00
2023-03-31T02:03:10.743Z,94.00
2023-03-31T02:03:58.629Z,94.10
2023-03-31T02:04:38.197Z,94.00
2023-03-31T02:05:15.653Z,94.10
2023-03-31T02:06:05.757Z,94.10
2023-03-31T02:06:43.511Z,94.10
2023-03-31T02:07:24.314Z,94.00
2023-03-31T02:08:07.014Z,94.10
2023-03-31T02:08:48.417Z,94.20
2023-03-31T02:09:24.954Z,94.00
2023-03-31T02:10:03.838Z,94.10
2023-03-31T02:10:36.583Z,94.00
2023-03-31T02:11:08.784Z,94.20
2023-03-31T02:11:43.431Z,94.10
2023-03-31T02:12:18.765Z,94.10
2023-03-31T02:12:53.598Z,94.00
2023-03-31T02:13:29.265Z,94.10
2023-03-31T02:14:05.248Z,94.10
2023-03-31T02:14:43.362Z,94.30
2023-03-31T02:15:23.820Z,94.00
2023-03-31T02:16:02.375Z,94.10
2023-03-31T02:16:41.885Z,94.20
2023-03-31T02:17:19.634Z,94.10
2023-03-31T02:17:56.555Z,94.10
2023-03-31T02:18:33.209Z,94.10
2023-03-31T02:19:07.033Z,94.20
2023-03-31T02:19:42.987Z,94.00
2023-03-31T02:20:19.697Z,94.00
2023-03-31T02:20:54.669Z,94.00
2023-03-31T02:21:27.025Z,94.10
2023-03-31T02:21:59.671Z,94.10
2023-03-31T02:22:36.540Z,94.00
2023-03-31T02:23:12.546Z,94.10
2023-03-31T02:23:48.450Z,94.00
2023-03-31T02:24:25.138Z,94.00
2023-03-31T02:25:01.312Z,94.00
2023-03-31T02:25:38.387Z,94.00
2023-03-31T02:26:13.378Z,94.00
2023-03-31T02:27:09.436Z,94.00
2023-03-31T02:27:44.378Z,94.00
2023-03-31T02:28:22.317Z,94.00
2023-03-31T02:28:54.716Z,94.00
2023-03-31T02:29:26.635Z,94.00
2023-03-31T02:30:00.005Z,94.10
2023-03-31T02:30:50.986Z,94.00
2023-03-31T02:31:54.435Z,94.30
2023-03-31T02:32:36.817Z,94.00
2023-03-31T02:33:08.818Z,94.00
2023-03-31T02:33:40.729Z,94.10
2023-03-31T02:34:12.705Z,94.30
2023-03-31T02:34:44.912Z,94.00
2023-03-31T02:35:21.451Z,94.20
2023-03-31T02:35:53.361Z,94.00
2023-03-31T02:36:27.914Z,94.10
2023-03-31T02:36:59.733Z,94.00
2023-03-31T02:37:31.787Z,94.00
2023-03-31T02:38:06.704Z,94.10
2023-03-31T02:38:46.217Z,94.10
2023-03-31T02:39:33.502Z,94.00
2023-03-31T02:40:17.483Z,94.10
2023-03-31T02:40:50.436Z,94.00
2023-03-31T02:41:22.615Z,94.10
2023-03-31T02:41:55.430Z,94.10
2023-03-31T02:42:27.589Z,93.40
2023-03-31T02:42:59.690Z,94.10
2023-03-31T02:43:31.445Z,94.10
2023-03-31T02:44:04.119Z,94.10
2023-03-31T02:44:39.933Z,94.10
2023-03-31T02:45:38.154Z,94.10
2023-03-31T02:46:10.454Z,94.00
2023-03-31T02:46:43.819Z,94.10
2023-03-31T02:47:20.301Z,94.10
2023-03-31T02:47:52.286Z,94.40
2023-03-31T02:48:40.659Z,94.20
2023-03-31T02:49:15.510Z,94.10
2023-03-31T02:49:56.997Z,94.10
2023-03-31T02:50:53.946Z,94.10
2023-03-31T02:51:28.183Z,94.10
2023-03-31T02:52:03.794Z,94.10
2023-03-31T02:52:50.541Z,94.10
2023-03-31T02:53:52.159Z,94.10
2023-03-31T02:54:44.281Z,94.10
2023-03-31T02:55:53.365Z,94.10
2023-03-31T02:56:56.103Z,94.10
2023-03-31T02:57:57.077Z,94.10
2023-03-31T02:58:54.079Z,94.10
2023-03-31T03:00:06.088Z,94.20
2023-03-31T03:00:47.242Z,94.20
2023-03-31T03:01:41.861Z,94.20
2023-03-31T03:02:18.884Z,94.20
2023-03-31T03:02:59.588Z,95.20
2023-03-31T03:03:56.386Z,94.20
2023-03-31T03:04:43.117Z,94.20
2023-03-31T03:05:26.881Z,94.20
2023-03-31T03:07:12.807Z,94.20
2023-03-31T03:08:09.036Z,94.20
2023-03-31T03:09:08.830Z,94.20
2023-03-31T03:10:06.616Z,94.30
2023-03-31T03:10:59.567Z,94.20
2023-03-31T03:11:34.098Z,94.20
2023-03-31T03:12:22.470Z,94.20
2023-03-31T03:13:18.904Z,94.20
2023-03-31T03:14:05.461Z,94.20
2023-03-31T03:15:00.338Z,94.20
2023-03-31T03:15:44.518Z,94.20
2023-03-31T03:16:33.176Z,94.20
2023-03-31T03:17:17.330Z,94.20
2023-03-31T03:17:51.266Z,94.30
2023-03-31T03:18:23.060Z,94.20
2023-03-31T03:19:00.695Z,94.30
2023-03-31T03:19:35.490Z,94.50
2023-03-31T03:20:09.491Z,94.30
2023-03-31T03:20:48.359Z,94.30
2023-03-31T03:21:20.286Z,94.30
2023-03-31T03:21:52.044Z,94.30
2023-03-31T03:22:23.830Z,94.30
2023-03-31T03:22:55.829Z,94.30
2023-03-31T03:23:27.643Z,94.30
2023-03-31T03:24:00.156Z,94.30
2023-03-31T03:24:34.371Z,94.30
2023-03-31T03:25:09.544Z,94.40
2023-03-31T03:25:41.861Z,94.30
2023-03-31T03:26:13.630Z,94.30
2023-03-31T03:26:45.957Z,94.30
2023-03-31T03:27:18.322Z,94.30
2023-03-31T03:27:53.010Z,94.40
2023-03-31T03:28:24.759Z,94.30
2023-03-31T03:28:57.444Z,94.30
2023-03-31T03:29:29.210Z,94.30
2023-03-31T03:30:02.630Z,94.30
2023-03-31T03:30:34.419Z,94.50
2023-03-31T03:31:06.229Z,94.30
2023-03-31T03:31:37.985Z,94.30
2023-03-31T03:32:11.287Z,94.70
2023-03-31T03:32:43.252Z,94.30
2023-03-31T03:33:17.133Z,94.40
2023-03-31T03:33:50.212Z,94.40
2023-03-31T03:34:21.944Z,94.30
2023-03-31T03:34:53.687Z,94.40
2023-03-31T03:35:25.737Z,94.40
2023-03-31T03:35:57.538Z,94.50
2023-03-31T03:36:29.438Z,94.50
2023-03-31T03:37:01.245Z,94.40
2023-03-31T03:37:33.757Z,94.40
2023-03-31T03:38:05.703Z,94.60
2023-03-31T03:38:37.493Z,94.40
2023-03-31T03:39:11.026Z,94.40
2023-03-31T03:39:42.795Z,94.50
2023-03-31T03:40:15.340Z,94.50
2023-03-31T03:40:49.585Z,94.70
2023-03-31T03:41:21.840Z,94.60
2023-03-31T03:41:53.676Z,94.50
2023-03-31T03:42:25.564Z,94.90
2023-03-31T03:42:57.337Z,94.30
2023-03-31T03:43:29.095Z,94.50
2023-03-31T03:44:01.245Z,94.50
2023-03-31T03:44:33.103Z,94.50
2023-03-31T03:45:05.496Z,94.80
2023-03-31T03:45:37.284Z,94.40
2023-03-31T03:46:09.323Z,94.70
2023-03-31T03:46:41.371Z,94.50
2023-03-31T03:47:13.750Z,94.50
2023-03-31T03:47:45.601Z,94.50
2023-03-31T03:48:18.053Z,94.50
2023-03-31T03:48:49.796Z,94.50
2023-03-31T03:49:21.565Z,94.50
2023-03-31T03:49:53.362Z,94.50
2023-03-31T03:50:25.343Z,94.60
2023-03-31T03:51:00.431Z,94.50
2023-03-31T03:51:32.268Z,94.50
2023-03-31T03:52:04.675Z,94.50
2023-03-31T03:52:39.412Z,94.50
2023-03-31T03:53:11.454Z,94.50
2023-03-31T03:53:43.483Z,94.50
2023-03-31T03:54:15.430Z,94.80
2023-03-31T03:54:47.227Z,94.60
2023-03-31T03:55:19.064Z,94.50
2023-03-31T03:55:51.318Z,94.50
2023-03-31T03:56:23.110Z,94.60
2023-03-31T03:56:54.969Z,94.50
2023-03-31T03:57:27.034Z,94.60
2023-03-31T03:57:58.889Z,94.30
2023-03-31T03:58:30.718Z,94.50
2023-03-31T03:59:02.791Z,94.50
2023-03-31T03:59:34.565Z,94.60
2023-03-31T04:00:10.843Z,94.50
2023-03-31T04:00:45.092Z,94.50
2023-03-31T04:01:18.082Z,94.50
2023-03-31T04:01:50.109Z,94.50
2023-03-31T04:02:21.960Z,94.50
2023-03-31T04:02:53.830Z,94.50
2023-03-31T04:03:25.933Z,93.70
2023-03-31T04:03:57.719Z,94.80
2023-03-31T04:04:29.586Z,94.50
2023-03-31T04:05:01.606Z,94.90
2023-03-31T04:05:33.396Z,94.50
2023-03-31T04:06:05.759Z,94.60
2023-03-31T04:06:38.086Z,94.60
2023-03-31T04:07:09.913Z,94.60
2023-03-31T04:07:41.633Z,94.60
2023-03-31T04:08:13.396Z,94.60
2023-03-31T04:08:45.245Z,94.60
2023-03-31T04:09:17.105Z,94.60
2023-03-31T04:09:48.868Z,94.60
2023-03-31T04:10:20.625Z,94.60
2023-03-31T04:10:52.347Z,94.60
2023-03-31T04:11:24.451Z,94.60
2023-03-31T04:11:56.338Z,94.60
2023-03-31T04:12:28.093Z,94.90
2023-03-31T04:13:00.127Z,94.80
2023-03-31T04:13:31.867Z,94.60
2023-03-31T04:14:03.560Z,94.60
2023-03-31T04:14:35.644Z,94.60
2023-03-31T04:15:08.072Z,94.60
2023-03-31T04:15:39.895Z,94.60
2023-03-31T04:16:11.972Z,94.70
2023-03-31T04:16:46.737Z,94.70
2023-03-31T04:17:18.723Z,94.80
2023-03-31T04:17:54.852Z,94.70
2023-03-31T04:18:26.680Z,94.70
2023-03-31T04:18:59.642Z,94.70
2023-03-31T04:19:31.382Z,94.90
2023-03-31T04:20:11.492Z,95.00
2023-03-31T04:20:44.965Z,94.70
2023-03-31T04:21:22.901Z,94.70
2023-03-31T04:22:04.871Z,94.70
2023-03-31T04:22:40.807Z,94.70
2023-03-31T04:23:14.993Z,94.90
2023-03-31T04:23:47.063Z,94.90
2023-03-31T04:24:21.910Z,94.70
2023-03-31T04:24:58.575Z,94.70
2023-03-31T04:25:30.862Z,94.80
2023-03-31T04:26:02.682Z,94.90
2023-03-31T04:26:44.377Z,94.50
2023-03-31T04:27:17.107Z,94.80
2023-03-31T04:27:55.576Z,94.80
2023-03-31T04:28:34.577Z,94.80
2023-03-31T04:29:07.430Z,94.70
2023-03-31T04:29:39.149Z,94.70
2023-03-31T04:30:11.785Z,94.90
2023-03-31T04:30:43.573Z,94.80
2023-03-31T04:31:15.480Z,94.80
2023-03-31T04:31:47.424Z,94.80
2023-03-31T04:32:21.620Z,94.80
2023-03-31T04:32:57.805Z,94.90
2023-03-31T04:33:29.624Z,94.90
2023-03-31T04:34:02.558Z,94.90
2023-03-31T04:34:37.428Z,94.90
2023-03-31T04:35:09.343Z,95.20
2023-03-31T04:35:50.390Z,95.10
2023-03-31T04:36:22.570Z,94.90
2023-03-31T04:36:56.127Z,94.80
2023-03-31T04:37:34.458Z,94.80
2023-03-31T04:38:06.385Z,94.90
2023-03-31T04:38:38.096Z,94.80
2023-03-31T04:39:12.845Z,94.80
2023-03-31T04:39:46.606Z,94.80
2023-03-31T04:40:18.570Z,94.80
2023-03-31T04:40:52.407Z,94.90
2023-03-31T04:41:27.480Z,94.90
2023-03-31T04:42:01.091Z,94.90
2023-03-31T04:42:32.926Z,94.90
2023-03-31T04:43:04.769Z,95.20
2023-03-31T04:43:36.521Z,95.00
2023-03-31T04:44:08.453Z,95.20
2023-03-31T04:44:40.480Z,95.00
2023-03-31T04:45:12.944Z,95.00
2023-03-31T04:45:45.246Z,95.10
2023-03-31T04:46:17.460Z,95.00
2023-03-31T04:46:49.535Z,95.10
2023-03-31T04:47:21.278Z,94.80
2023-03-31T04:47:53.252Z,95.20
2023-03-31T04:48:25.197Z,95.00
2023-03-31T04:48:58.830Z,94.70
2023-03-31T04:49:33.428Z,95.00
2023-03-31T04:50:06.031Z,95.30
2023-03-31T04:50:38.785Z,95.10
2023-03-31T04:51:10.659Z,95.30
2023-03-31T04:51:42.422Z,95.30
2023-03-31T04:52:14.173Z,95.10
2023-03-31T04:52:46.254Z,95.10
2023-03-31T04:53:18.079Z,95.10
2023-03-31T04:53:49.840Z,95.10
2023-03-31T04:54:21.558Z,95.10
2023-03-31T04:54:53.312Z,95.10
2023-03-31T04:55:25.273Z,95.10
2023-03-31T04:55:57.085Z,95.10
2023-03-31T04:56:28.963Z,95.10
2023-03-31T04:57:00.890Z,95.10
2023-03-31T04:57:32.720Z,95.10
2023-03-31T04:58:04.553Z,95.30
2023-03-31T04:58:36.458Z,95.30
2023-03-31T04:59:08.593Z,95.10
2023-03-31T04:59:40.308Z,95.10
2023-03-31T05:00:12.824Z,95.10
2023-03-31T05:00:47.677Z,95.20
2023-03-31T05:01:19.574Z,95.10
2023-03-31T05:01:51.305Z,95.20
2023-03-31T05:02:25.866Z,95.10
2023-03-31T05:02:59.257Z,95.10
2023-03-31T05:03:31.247Z,95.30
2023-03-31T05:04:04.422Z,95.20
2023-03-31T05:04:37.599Z,95.40
2023-03-31T05:05:10.348Z,95.00
2023-03-31T05:05:42.350Z,95.10
2023-03-31T05:06:17.690Z,95.20
2023-03-31T05:06:49.463Z,95.10
2023-03-31T05:07:21.278Z,94.90
2023-03-31T05:07:53.003Z,95.30
2023-03-31T05:08:24.756Z,95.10
2023-03-31T05:08:56.612Z,95.00
2023-03-31T05:09:28.415Z,95.10
2023-03-31T05:10:00.253Z,95.20
2023-03-31T05:10:32.032Z,95.10
2023-03-31T05:11:04.487Z,95.10
2023-03-31T05:11:36.572Z,95.10
2023-03-31T05:12:08.409Z,95.10
2023-03-31T05:12:40.536Z,95.30
2023-03-31T05:13:12.386Z,95.10
2023-03-31T05:13:44.276Z,95.10
2023-03-31T05:14:16.087Z,95.00
2023-03-31T05:14:47.964Z,95.30
2023-03-31T05:15:20.458Z,95.00
2023-03-31T05:15:52.557Z,95.10
2023-03-31T05:16:24.356Z,95.30
2023-03-31T05:16:58.038Z,95.20
2023-03-31T05:17:35.108Z,95.00
2023-03-31T05:18:08.073Z,95.30
2023-03-31T05:18:41.059Z,95.30
2023-03-31T05:19:12.813Z,95.10
2023-03-31T05:19:44.908Z,95.10
2023-03-31T05:20:16.958Z,95.10
2023-03-31T05:20:48.775Z,95.20
2023-03-31T05:21:21.964Z,95.10
2023-03-31T05:21:53.987Z,95.30
2023-03-31T05:22:26.199Z,95.30
2023-03-31T05:22:58.052Z,95.10
2023-03-31T05:23:30.696Z,95.10
2023-03-31T05:24:03.054Z,95.10
2023-03-31T05:24:35.101Z,95.00
2023-03-31T05:25:09.050Z,95.10
2023-03-31T05:25:42.250Z,95.00
2023-03-31T05:26:14.896Z,95.00
2023-03-31T05:26:52.345Z,95.00
2023-03-31T05:27:24.296Z,95.00
2023-03-31T05:27:56.622Z,95.90
2023-03-31T05:28:29.861Z,95.10
2023-03-31T05:29:02.561Z,95.30
2023-03-31T05:29:34.446Z,95.10
2023-03-31T05:30:08.129Z,95.20
2023-03-31T05:30:39.916Z,95.00
2023-03-31T05:31:13.136Z,95.00
2023-03-31T05:31:46.366Z,95.00
2023-03-31T05:32:18.148Z,94.90
2023-03-31T05:32:49.937Z,95.20
2023-03-31T05:33:21.701Z,94.90
2023-03-31T05:33:53.493Z,95.00
2023-03-31T05:34:25.307Z,95.00
2023-03-31T05:34:57.687Z,95.00
2023-03-31T05:35:29.961Z,95.80
2023-03-31T05:36:01.856Z,95.00
2023-03-31T05:36:35.010Z,95.10
2023-03-31T05:37:06.703Z,94.90
2023-03-31T05:37:38.528Z,95.20
2023-03-31T05:38:10.520Z,95.00
2023-03-31T05:38:43.330Z,95.00
2023-03-31T05:39:15.089Z,95.00
2023-03-31T05:39:46.891Z,94.90
2023-03-31T05:40:18.672Z,95.00
2023-03-31T05:40:50.563Z,95.00
2023-03-31T05:41:22.311Z,95.00
2023-03-31T05:41:54.078Z,95.00
2023-03-31T05:42:25.876Z,95.00
2023-03-31T05:42:57.601Z,95.00
2023-03-31T05:43:29.694Z,95.00
2023-03-31T05:44:05.104Z,94.70
2023-03-31T05:44:36.849Z,94.90
2023-03-31T05:45:09.369Z,94.90
2023-03-31T05:45:41.463Z,94.90
2023-03-31T05:46:13.983Z,95.00
2023-03-31T05:46:46.092Z,95.00
2023-03-31T05:47:18.021Z,95.30
2023-03-31T05:47:49.864Z,94.90
2023-03-31T05:48:21.739Z,94.90
2023-03-31T05:48:53.536Z,95.00
2023-03-31T05:49:25.301Z,94.90
2023-03-31T05:49:57.070Z,94.90
2023-03-31T05:50:28.891Z,95.00
2023-03-31T05:51:01.855Z,95.00
2023-03-31T05:51:33.914Z,95.00
2023-03-31T05:52:07.004Z,95.20
2023-03-31T05:52:38.762Z,94.80
2023-03-31T05:53:10.706Z,95.10
2023-03-31T05:53:42.480Z,95.10
2023-03-31T05:54:14.747Z,95.00
2023-03-31T05:54:46.595Z,94.70
2023-03-31T05:55:18.842Z,95.00
2023-03-31T05:55:56.184Z,95.00
2023-03-31T05:56:28.016Z,94.90
2023-03-31T05:56:59.987Z,95.00
2023-03-31T05:57:32.058Z,95.00
2023-03-31T05:58:04.064Z,94.90
2023-03-31T05:58:37.208Z,95.90
2023-03-31T05:59:08.987Z,94.90
2023-03-31T05:59:42.163Z,94.90
2023-03-31T06:00:14.827Z,95.30
2023-03-31T06:00:47.093Z,94.90
2023-03-31T06:01:23.449Z,94.90
2023-03-31T06:01:55.457Z,95.00
2023-03-31T06:02:27.598Z,95.20
2023-03-31T06:02:59.597Z,95.00
2023-03-31T06:03:32.964Z,95.00
2023-03-31T06:04:04.747Z,95.00
2023-03-31T06:04:37.209Z,95.00
2023-03-31T06:05:09.249Z,95.00
2023-03-31T06:05:47.302Z,95.10
2023-03-31T06:06:19.419Z,94.50
2023-03-31T06:06:51.235Z,95.00
2023-03-31T06:07:24.938Z,95.00
2023-03-31T06:07:57.002Z,95.20
2023-03-31T06:08:29.789Z,95.00
2023-03-31T06:09:01.760Z,95.00
2023-03-31T06:09:33.552Z,95.00
2023-03-31T06:10:07.956Z,94.90
2023-03-31T06:10:40.592Z,95.00
2023-03-31T06:11:15.027Z,95.00
2023-03-31T06:11:47.924Z,95.00
2023-03-31T06:12:21.377Z,95.00
2023-03-31T06:12:53.115Z,95.00
2023-03-31T06:13:24.927Z,95.00
2023-03-31T06:13:56.644Z,95.00
2023-03-31T06:14:28.815Z,95.00
2023-03-31T06:15:00.639Z,94.90
2023-03-31T06:15:32.512Z,94.90
2023-03-31T06:16:05.195Z,94.90
2023-03-31T06:16:37.187Z,94.90
2023-03-31T06:17:09.025Z,95.00
2023-03-31T06:17:41.087Z,94.90
2023-03-31T06:18:12.957Z,94.90
2023-03-31T06:18:45.865Z,95.00
2023-03-31T06:19:18.017Z,94.90
2023-03-31T06:19:49.766Z,94.90
2023-03-31T06:20:28.198Z,95.00
2023-03-31T06:21:01.390Z,94.90
2023-03-31T06:21:33.727Z,94.90
2023-03-31T06:22:05.657Z,95.20
2023-03-31T06:22:37.477Z,95.00
2023-03-31T06:23:09.217Z,94.70
2023-03-31T06:23:41.100Z,95.00
2023-03-31T06:24:12.999Z,94.90
2023-03-31T06:24:44.908Z,94.90
2023-03-31T06:25:16.673Z,94.90
2023-03-31T06:25:51.251Z,94.90
2023-03-31T06:26:24.498Z,94.90
2023-03-31T06:26:56.393Z,94.90
2023-03-31T06:27:28.195Z,95.00
2023-03-31T06:28:00.289Z,95.10
2023-03-31T06:28:32.113Z,94.90
2023-03-31T06:29:03.950Z,95.10
2023-03-31T06:29:35.987Z,94.40
2023-03-31T06:30:08.392Z,94.90
2023-03-31T06:30:40.754Z,94.90
2023-03-31T06:31:15.530Z,95.10
2023-03-31T06:31:47.561Z,94.90
2023-03-31T06:32:19.351Z,94.90
2023-03-31T06:32:51.221Z,95.00
2023-03-31T06:33:23.000Z,95.00
2023-03-31T06:33:55.095Z,95.20
2023-03-31T06:34:27.140Z,95.10
2023-03-31T06:34:58.927Z,95.00
2023-03-31T06:35:30.921Z,95.30
2023-03-31T06:36:05.521Z,94.90
2023-03-31T06:36:37.577Z,94.80
2023-03-31T06:37:09.397Z,94.50
2023-03-31T06:37:41.222Z,94.90
2023-03-31T06:38:13.031Z,95.10
2023-03-31T06:38:46.026Z,95.10
2023-03-31T06:39:17.866Z,95.00
2023-03-31T06:39:50.410Z,94.90
2023-03-31T06:40:22.194Z,94.80
2023-03-31T06:40:54.680Z,95.00
2023-03-31T06:41:26.479Z,95.00
2023-03-31T06:41:58.215Z,95.40
2023-03-31T06:42:33.144Z,95.10
2023-03-31T06:43:05.241Z,94.80
2023-03-31T06:43:37.017Z,94.70
2023-03-31T06:44:08.875Z,95.10
2023-03-31T06:44:40.832Z,94.80
2023-03-31T06:45:12.635Z,95.00
2023-03-31T06:45:44.489Z,95.00
2023-03-31T06:46:16.826Z,95.00
2023-03-31T06:46:49.227Z,95.10
2023-03-31T06:47:20.996Z,94.80
2023-03-31T06:47:52.827Z,95.20
2023-03-31T06:48:25.818Z,95.10
2023-03-31T06:48:57.691Z,95.00
2023-03-31T06:49:29.432Z,94.80
2023-03-31T06:50:01.390Z,95.10
2023-03-31T06:50:33.224Z,95.10
2023-03-31T06:51:07.469Z,95.00
2023-03-31T06:51:39.246Z,94.90
2023-03-31T06:52:11.233Z,95.10
2023-03-31T06:52:43.243Z,95.10
2023-03-31T06:53:15.011Z,95.10
2023-03-31T06:53:46.765Z,94.90
2023-03-31T06:54:18.568Z,94.90
2023-03-31T06:54:50.305Z,95.10
2023-03-31T06:55:22.134Z,95.20
2023-03-31T06:55:54.010Z,95.20
2023-03-31T06:56:27.202Z,94.90
2023-03-31T06:56:59.009Z,95.20
2023-03-31T06:57:33.364Z,95.20
2023-03-31T06:58:05.830Z,95.00
2023-03-31T06:58:37.761Z,95.20
2023-03-31T06:59:09.675Z,95.00
2023-03-31T06:59:41.462Z,95.20
2023-03-31T07:00:13.881Z,95.20
2023-03-31T07:00:48.557Z,95.20
2023-03-31T07:01:20.325Z,95.20
2023-03-31T07:01:52.260Z,95.40
2023-03-31T07:02:24.146Z,95.20
2023-03-31T07:02:55.977Z,95.40
2023-03-31T07:03:29.514Z,95.20
2023-03-31T07:04:01.397Z,95.00
2023-03-31T07:04:33.155Z,95.30
2023-03-31T07:05:05.194Z,95.20
2023-03-31T07:05:37.057Z,95.20
2023-03-31T07:06:08.824Z,95.20
2023-03-31T07:06:40.707Z,95.20
2023-03-31T07:07:12.498Z,95.20
2023-03-31T07:07:46.405Z,95.20
2023-03-31T07:08:18.711Z,95.20
2023-03-31T07:08:50.913Z,95.30
2023-03-31T07:09:23.517Z,95.20
2023-03-31T07:09:56.382Z,95.50
2023-03-31T07:10:30.658Z,95.50
2023-03-31T07:11:02.809Z,95.30
2023-03-31T07:11:34.935Z,95.70
2023-03-31T07:12:06.858Z,95.40
2023-03-31T07:12:38.621Z,95.50
2023-03-31T07:13:10.408Z,95.40
2023-03-31T07:13:42.178Z,95.60
2023-03-31T07:14:13.930Z,95.20
2023-03-31T07:14:45.836Z,95.70
2023-03-31T07:15:17.763Z,94.50
2023-03-31T07:15:50.771Z,95.60
2023-03-31T07:16:23.499Z,95.50
2023-03-31T07:16:55.323Z,95.70
2023-03-31T07:17:27.117Z,95.80
2023-03-31T07:18:02.574Z,95.50
2023-03-31T07:18:35.569Z,95.50
2023-03-31T07:19:10.784Z,95.80
2023-03-31T07:19:42.619Z,95.50
2023-03-31T07:20:16.002Z,95.50
2023-03-31T07:20:49.619Z,95.50
2023-03-31T07:21:21.560Z,95.60
2023-03-31T07:21:53.862Z,95.60
2023-03-31T07:22:26.175Z,95.90
2023-03-31T07:22:57.967Z,95.60
2023-03-31T07:23:29.895Z,95.60
2023-03-31T07:24:01.716Z,95.80
2023-03-31T07:24:33.508Z,95.80
2023-03-31T07:25:05.849Z,95.80
2023-03-31T07:25:37.618Z,95.80
2023-03-31T07:26:09.474Z,95.80
2023-03-31T07:26:41.323Z,95.90
2023-03-31T07:27:13.070Z,96.10
2023-03-31T07:27:44.903Z,96.00
2023-03-31T07:28:16.822Z,96.00
2023-03-31T07:28:48.622Z,96.20
2023-03-31T07:29:20.536Z,95.90
2023-03-31T07:29:52.328Z,96.00
2023-03-31T07:30:24.612Z,96.20
2023-03-31T07:30:56.439Z,96.20
2023-03-31T07:31:28.305Z,96.10
2023-03-31T07:32:00.244Z,96.00
2023-03-31T07:32:33.160Z,96.10
2023-03-31T07:33:06.210Z,96.20
2023-03-31T07:33:37.968Z,96.20
2023-03-31T07:34:09.713Z,96.10
2023-03-31T07:34:41.752Z,96.20
2023-03-31T07:35:13.570Z,96.20
2023-03-31T07:35:47.009Z,96.20
2023-03-31T07:36:23.542Z,96.20
2023-03-31T07:36:56.158Z,96.60
2023-03-31T07:37:28.006Z,96.30
2023-03-31T07:37:59.828Z,96.30
2023-03-31T07:38:31.726Z,96.30
2023-03-31T07:39:06.466Z,96.40